createdAt,value
2023-03-20T00:02:36.499Z,3.90
2023-03-20T00:05:26.497Z,3.33
2023-03-20T00:08:16.050Z,3.63
2023-03-20T00:11:04.699Z,3.53
2023-03-20T00:13:55.465Z,3.47
2023-03-20T00:16:46.698Z,3.67
2023-03-20T00:19:36.581Z,4.28
2023-03-20T00:22:25.289Z,3.80
2023-03-20T00:25:16.925Z,3.50
2023-03-20T00:28:27.477Z,3.60
2023-03-20T00:31:26.711Z,3.38
2023-03-20T00:34:19.653Z,3.50
2023-03-20T00:37:08.772Z,3.10
2023-03-20T00:39:57.374Z,3.17
2023-03-20T00:42:48.753Z,3.67
2023-03-20T00:45:37.835Z,4.00
2023-03-20T00:48:27.044Z,4.38
2023-03-20T00:51:17.213Z,3.60
2023-03-20T00:54:07.346Z,3.55
2023-03-20T00:57:00.561Z,3.75
2023-03-20T00:59:55.096Z,3.70
2023-03-20T01:02:43.931Z,3.58
2023-03-20T01:05:33.376Z,3.65
2023-03-20T01:08:25.525Z,4.30
2023-03-20T01:11:15.947Z,4.50
2023-03-20T01:14:05.147Z,6.07
2023-03-20T01:16:54.892Z,4.07
2023-03-20T01:19:43.672Z,4.43
2023-03-20T01:22:34.874Z,5.00
2023-03-20T01:25:25.461Z,3.83
2023-03-20T01:28:18.330Z,4.32
2023-03-20T01:31:07.259Z,4.03
2023-03-20T01:33:57.504Z,4.38
2023-03-20T01:36:50.822Z,5.18
2023-03-20T01:39:40.017Z,4.85
2023-03-20T01:42:30.852Z,4.72
2023-03-20T01:45:22.771Z,4.97
2023-03-20T01:48:20.138Z,4.35
2023-03-20T01:51:09.797Z,3.90
2023-03-20T01:54:04.202Z,4.97
2023-03-20T01:57:01.779Z,4.68
2023-03-20T01:59:54.992Z,5.75
2023-03-20T02:02:46.617Z,6.10
2023-03-20T02:05:48.807Z,5.60
2023-03-20T02:08:43.281Z,5.53
2023-03-20T02:11:32.098Z,6.60
2023-03-20T02:14:23.087Z,5.38
2023-03-20T02:17:21.452Z,6.97
2023-03-20T02:20:33.024Z,7.03
2023-03-20T02:23:53.506Z,5.45
2023-03-20T02:27:02.427Z,5.72
2023-03-20T02:30:26.119Z,6.07
2023-03-20T02:33:48.018Z,5.57
2023-03-20T02:36:51.626Z,5.68
2023-03-20T02:39:54.866Z,6.05
2023-03-20T02:42:52.470Z,5.88
2023-03-20T02:45:48.270Z,5.47
2023-03-20T02:48:50.262Z,7.07
2023-03-20T02:51:48.894Z,5.30
2023-03-20T02:54:47.585Z,5.35
2023-03-20T02:57:48.465Z,5.35
2023-03-20T03:00:43.646Z,5.05
2023-03-20T03:03:38.289Z,5.88
2023-03-20T03:06:33.003Z,5.43
2023-03-20T03:09:26.261Z,6.30
2023-03-20T03:12:20.272Z,6.28
2023-03-20T03:15:17.352Z,5.75
2023-03-20T03:18:13.184Z,6.78
2023-03-20T03:21:03.643Z,6.63
2023-03-20T03:23:54.475Z,7.68
2023-03-20T03:26:43.390Z,5.07
2023-03-20T03:29:37.637Z,6.00
2023-03-20T03:32:33.397Z,5.25
2023-03-20T03:35:25.023Z,5.90
2023-03-20T03:38:28.414Z,5.47
2023-03-20T03:41:23.641Z,5.35
2023-03-20T03:44:18.250Z,5.25
2023-03-20T03:47:11.546Z,5.32
2023-03-20T03:50:06.361Z,6.05
2023-03-20T03:53:00.296Z,7.07
2023-03-20T03:55:53.480Z,8.15
2023-03-20T03:58:45.125Z,8.05
2023-03-20T04:01:35.914Z,7.30
2023-03-20T04:04:26.736Z,7.53
2023-03-20T04:07:17.320Z,7.13
2023-03-20T04:10:07.170Z,10.68
2023-03-20T04:12:56.150Z,7.88
2023-03-20T04:15:45.491Z,7.43
2023-03-20T04:18:34.170Z,7.30
2023-03-20T04:21:23.094Z,7.97
2023-03-20T04:24:15.734Z,7.00
2023-03-20T04:27:05.195Z,8.07
2023-03-20T04:29:55.193Z,7.22
2023-03-20T04:33:07.729Z,6.70
2023-03-20T04:36:06.284Z,6.53
2023-03-20T04:38:57.479Z,6.78
2023-03-20T04:41:49.566Z,7.40
2023-03-20T04:44:38.338Z,6.28
2023-03-20T04:47:30.067Z,6.80
2023-03-20T04:50:19.050Z,7.15
2023-03-20T04:53:08.844Z,6.30
2023-03-20T04:56:00.606Z,6.38
2023-03-20T04:58:53.159Z,6.18
2023-03-20T05:01:43.371Z,10.25
2023-03-20T05:04:33.226Z,9.30
2023-03-20T05:07:22.357Z,6.65
2023-03-20T05:10:21.146Z,6.40
2023-03-20T05:13:16.386Z,5.90
2023-03-20T05:16:33.206Z,6.65
2023-03-20T05:19:47.515Z,6.05
2023-03-20T05:22:57.181Z,6.47
2023-03-20T05:26:06.208Z,6.18
2023-03-20T05:29:33.043Z,6.43
2023-03-20T05:32:26.668Z,6.60
2023-03-20T05:35:42.198Z,6.07
2023-03-20T05:38:48.956Z,6.32
2023-03-20T05:41:57.899Z,6.55
2023-03-20T05:45:06.460Z,6.35
2023-03-20T05:48:11.828Z,6.75
2023-03-20T05:51:03.797Z,6.50
2023-03-20T05:54:03.643Z,6.68
2023-03-20T05:57:17.619Z,6.80
2023-03-20T06:00:27.719Z,6.88
2023-03-20T06:03:39.060Z,6.70
2023-03-20T06:06:37.822Z,7.57
2023-03-20T06:09:26.645Z,6.50
2023-03-20T06:12:16.596Z,6.93
2023-03-20T06:15:06.513Z,6.95
2023-03-20T06:18:00.130Z,7.35
2023-03-20T06:20:55.273Z,7.07
2023-03-20T06:23:44.356Z,6.85
2023-03-20T06:26:33.061Z,6.10
2023-03-20T06:29:25.969Z,6.70
2023-03-20T06:32:19.318Z,6.30
2023-03-20T06:35:14.706Z,7.05
2023-03-20T06:38:08.870Z,6.85
2023-03-20T06:40:58.750Z,6.78
2023-03-20T06:43:47.386Z,6.60
2023-03-20T06:46:37.316Z,7.03
2023-03-20T06:49:26.582Z,6.60
2023-03-20T06:52:18.401Z,6.68
2023-03-20T06:55:19.358Z,7.07
2023-03-20T06:58:08.368Z,7.30
2023-03-20T07:00:58.811Z,7.00
2023-03-20T07:03:48.775Z,6.32
2023-03-20T07:06:43.173Z,7.07
2023-03-20T07:09:33.403Z,7.47
2023-03-20T07:12:29.017Z,6.93
2023-03-20T07:15:21.199Z,7.18
2023-03-20T07:18:11.133Z,7.57
2023-03-20T07:21:03.880Z,8.07
2023-03-20T07:23:53.352Z,7.43
2023-03-20T07:26:42.645Z,7.70
2023-03-20T07:29:32.793Z,10.45
2023-03-20T07:32:21.784Z,10.00
2023-03-20T07:35:14.149Z,10.95
2023-03-20T07:38:04.514Z,7.80
2023-03-20T07:40:55.253Z,8.75
2023-03-20T07:43:44.873Z,7.95
2023-03-20T07:46:44.582Z,8.10
2023-03-20T07:49:34.127Z,7.88
2023-03-20T07:52:22.809Z,9.68
2023-03-20T07:55:11.788Z,9.00
2023-03-20T07:58:00.848Z,8.20
2023-03-20T08:00:49.501Z,9.07
2023-03-20T08:03:39.767Z,8.00
2023-03-20T08:06:29.114Z,9.65
2023-03-20T08:09:19.286Z,9.65
2023-03-20T08:12:08.546Z,9.80
2023-03-20T08:14:57.628Z,8.80
2023-03-20T08:17:46.732Z,10.98
2023-03-20T08:20:36.765Z,10.05
2023-03-20T08:23:25.435Z,9.40
2023-03-20T08:26:14.024Z,8.57
2023-03-20T08:29:03.063Z,8.32
2023-03-20T08:31:51.754Z,8.32
2023-03-20T08:34:40.384Z,7.95
2023-03-20T08:37:31.002Z,7.30
2023-03-20T08:40:19.736Z,7.82
2023-03-20T08:43:08.669Z,7.68
2023-03-20T08:45:57.359Z,7.78
2023-03-20T08:48:47.869Z,6.85
2023-03-20T08:51:36.615Z,6.43
2023-03-20T08:54:27.121Z,6.13
2023-03-20T08:57:15.828Z,6.18
2023-03-20T09:00:06.359Z,6.53
2023-03-20T09:02:55.096Z,6.90
2023-03-20T09:05:46.423Z,6.20
2023-03-20T09:08:35.098Z,6.28
2023-03-20T09:11:25.951Z,6.18
2023-03-20T09:14:14.940Z,6.53
2023-03-20T09:17:04.155Z,6.18
2023-03-20T09:19:52.800Z,5.90
2023-03-20T09:22:44.132Z,6.50
2023-03-20T09:25:32.729Z,6.93
2023-03-20T09:28:23.625Z,5.20
2023-03-20T09:31:14.958Z,5.20
2023-03-20T09:34:03.868Z,4.85
2023-03-20T09:36:54.488Z,5.10
2023-03-20T09:39:43.302Z,4.13
2023-03-20T09:42:48.166Z,4.30
2023-03-20T09:45:52.325Z,3.78
2023-03-20T09:48:47.496Z,3.97
2023-03-20T09:51:43.801Z,3.75
2023-03-20T09:54:53.197Z,3.65
2023-03-20T09:57:47.409Z,3.20
2023-03-20T10:00:44.477Z,3.95
2023-03-20T10:03:43.499Z,3.15
2023-03-20T10:06:32.511Z,3.88
2023-03-20T10:09:24.822Z,3.35
2023-03-20T10:12:46.112Z,3.17
2023-03-20T10:15:47.381Z,3.42
2023-03-20T10:18:41.469Z,2.70
2023-03-20T10:21:38.152Z,3.10
2023-03-20T10:24:31.037Z,2.80
2023-03-20T10:27:26.258Z,2.88
2023-03-20T10:30:29.982Z,2.78
2023-03-20T10:33:38.494Z,2.60
2023-03-20T10:36:40.790Z,2.40
2023-03-20T10:39:42.055Z,2.45
2023-03-20T10:42:34.697Z,3.13
2023-03-20T10:45:33.154Z,2.83
2023-03-20T10:48:28.009Z,2.70
2023-03-20T10:51:20.322Z,2.90
2023-03-20T10:54:19.785Z,2.75
2023-03-20T10:57:16.957Z,2.40
2023-03-20T11:00:11.072Z,2.20
2023-03-20T11:02:59.867Z,2.25
2023-03-20T11:06:08.525Z,3.00
2023-03-20T11:08:58.356Z,2.50
2023-03-20T11:11:48.141Z,2.65
2023-03-20T11:14:40.362Z,2.67
2023-03-20T11:17:30.307Z,2.45
2023-03-20T11:20:19.002Z,2.53
2023-03-20T11:23:09.313Z,2.10
2023-03-20T11:26:01.325Z,2.10
2023-03-20T11:28:53.830Z,2.40
2023-03-20T11:31:43.236Z,2.30
2023-03-20T11:34:34.620Z,2.28
2023-03-20T11:37:25.921Z,2.60
2023-03-20T11:40:22.912Z,2.20
2023-03-20T11:43:13.963Z,2.60
2023-03-20T11:46:04.389Z,2.42
2023-03-20T11:49:07.704Z,2.20
2023-03-20T11:52:02.377Z,2.40
2023-03-20T11:54:53.670Z,2.20
2023-03-20T11:57:47.385Z,2.58
2023-03-20T12:00:38.587Z,2.35
2023-03-20T12:03:52.435Z,2.00
2023-03-20T12:06:47.314Z,1.75
2023-03-20T12:09:40.954Z,1.50
2023-03-20T12:12:41.016Z,2.10
2023-03-20T12:15:35.432Z,2.25
2023-03-20T12:18:32.752Z,1.50
2023-03-20T12:21:25.787Z,1.70
2023-03-20T12:24:25.236Z,2.13
2023-03-20T12:27:25.047Z,1.30
2023-03-20T12:30:19.103Z,0.95
2023-03-20T12:33:16.554Z,0.90
2023-03-20T12:36:11.687Z,1.00
2023-03-20T12:39:01.064Z,1.10
2023-03-20T12:42:09.526Z,1.00
2023-03-20T12:45:06.784Z,0.90
2023-03-20T12:48:17.249Z,0.90
2023-03-20T12:51:13.536Z,1.10
2023-03-20T12:54:16.333Z,1.08
2023-03-20T12:57:18.922Z,1.10
2023-03-20T13:00:19.238Z,1.50
2023-03-20T13:03:27.909Z,1.73
2023-03-20T13:06:24.288Z,1.23
2023-03-20T13:09:44.680Z,1.10
2023-03-20T13:12:41.314Z,1.00
2023-03-20T13:15:48.530Z,0.95
2023-03-20T13:18:52.586Z,1.30
2023-03-20T13:21:50.092Z,1.20
2023-03-20T13:24:43.407Z,1.10
2023-03-20T13:27:40.393Z,1.08
2023-03-20T13:30:35.795Z,1.00
2023-03-20T13:33:38.346Z,1.00
2023-03-20T13:36:44.720Z,1.05
2023-03-20T13:39:38.269Z,1.05
2023-03-20T13:42:32.159Z,1.80
2023-03-20T13:45:31.385Z,2.00
2023-03-20T13:48:30.155Z,3.55
2023-03-20T13:51:27.449Z,2.30
2023-03-20T13:54:40.182Z,2.92
2023-03-20T13:57:46.138Z,2.60
2023-03-20T14:00:40.115Z,2.65
2023-03-20T14:03:33.156Z,1.20
2023-03-20T14:06:48.437Z,1.40
2023-03-20T14:09:38.799Z,1.38
2023-03-20T14:12:33.290Z,1.63
2023-03-20T14:15:22.750Z,1.17
2023-03-20T14:18:17.560Z,1.08
2023-03-20T14:21:13.707Z,1.10
2023-03-20T14:24:04.948Z,1.40
2023-03-20T14:26:58.534Z,2.20
2023-03-20T14:29:47.702Z,1.65
2023-03-20T14:32:37.775Z,1.45
2023-03-20T14:35:29.383Z,1.45
2023-03-20T14:38:27.455Z,1.80
2023-03-20T14:41:22.490Z,2.90
2023-03-20T14:44:26.320Z,2.78
2023-03-20T14:47:33.562Z,4.13
2023-03-20T14:50:27.763Z,1.70
2023-03-20T14:53:19.964Z,2.35
2023-03-20T14:56:11.982Z,1.33
2023-03-20T14:59:06.497Z,4.72
2023-03-20T15:01:59.080Z,1.45
2023-03-20T15:04:49.064Z,3.25
2023-03-20T15:07:40.550Z,2.17
2023-03-20T15:10:30.163Z,1.63
2023-03-20T15:13:20.584Z,1.40
2023-03-20T15:16:12.865Z,1.63
2023-03-20T15:19:18.689Z,2.20
2023-03-20T15:22:25.159Z,1.90
2023-03-20T15:25:18.650Z,2.00
2023-03-20T15:28:14.479Z,1.10
2023-03-20T15:31:06.929Z,1.15
2023-03-20T15:33:57.229Z,1.23
2023-03-20T15:36:49.481Z,1.00
2023-03-20T15:39:45.002Z,1.67
2023-03-20T15:42:34.136Z,2.15
2023-03-20T15:45:27.200Z,1.70
2023-03-20T15:48:21.674Z,1.40
2023-03-20T15:51:11.804Z,3.80
2023-03-20T15:54:08.343Z,3.13
2023-03-20T15:57:01.213Z,1.48
2023-03-20T15:59:49.932Z,0.77
2023-03-20T16:02:39.582Z,0.85
2023-03-20T16:05:30.121Z,0.70
2023-03-20T16:08:26.116Z,0.63
2023-03-20T16:11:19.240Z,1.45
2023-03-20T16:14:11.491Z,1.38
2023-03-20T16:17:02.648Z,2.22
2023-03-20T16:19:51.793Z,1.13
2023-03-20T16:22:42.742Z,1.50
2023-03-20T16:25:32.169Z,1.13
2023-03-20T16:28:22.396Z,0.90
2023-03-20T16:31:17.139Z,1.08
2023-03-20T16:34:09.078Z,0.80
2023-03-20T16:37:00.117Z,0.50
2023-03-20T16:39:48.747Z,0.90
2023-03-20T16:42:38.730Z,1.30
2023-03-20T16:45:31.348Z,0.70
2023-03-20T16:48:28.131Z,0.50
2023-03-20T16:51:22.264Z,1.25
2023-03-20T16:54:21.165Z,2.85
2023-03-20T16:57:10.973Z,1.30
2023-03-20T17:00:04.725Z,3.15
2023-03-20T17:03:02.001Z,1.95
2023-03-20T17:05:56.287Z,1.02
2023-03-20T17:08:50.363Z,1.65
2023-03-20T17:11:41.321Z,2.00
2023-03-20T17:14:31.143Z,2.63
2023-03-20T17:17:22.309Z,3.38
2023-03-20T17:20:20.299Z,3.97
2023-03-20T17:23:14.249Z,2.53
2023-03-20T17:26:03.100Z,1.75
2023-03-20T17:28:52.085Z,1.70
2023-03-20T17:31:41.604Z,1.70
2023-03-20T17:34:31.792Z,3.63
2023-03-20T17:37:28.315Z,3.17
2023-03-20T17:40:20.639Z,2.25
2023-03-20T17:43:12.450Z,2.10
2023-03-20T17:46:01.154Z,16.52
2023-03-20T17:48:51.102Z,10.85
2023-03-20T17:51:40.690Z,15.60
2023-03-20T17:54:30.718Z,15.70
2023-03-20T17:57:23.424Z,6.07
2023-03-20T18:00:18.067Z,4.38
2023-03-20T18:03:06.757Z,9.05
2023-03-20T18:05:55.927Z,24.90
2023-03-20T18:08:44.694Z,8.65
2023-03-20T18:11:34.688Z,6.80
2023-03-20T18:14:24.483Z,5.20
2023-03-20T18:17:14.475Z,3.92
2023-03-20T18:20:03.869Z,3.33
2023-03-20T18:22:52.460Z,3.15
2023-03-20T18:25:42.615Z,3.60
2023-03-20T18:28:32.593Z,2.60
2023-03-20T18:31:21.731Z,2.40
2023-03-20T18:34:10.400Z,2.10
2023-03-20T18:36:59.041Z,3.83
2023-03-20T18:39:47.616Z,10.32
2023-03-20T18:42:36.214Z,7.13
2023-03-20T18:45:27.898Z,4.40
2023-03-20T18:48:17.350Z,4.25
2023-03-20T18:51:06.424Z,5.10
2023-03-20T18:53:55.443Z,4.95
2023-03-20T18:56:44.614Z,5.25
2023-03-20T18:59:33.770Z,4.88
2023-03-20T19:02:23.730Z,6.03
2023-03-20T19:05:12.831Z,4.25
2023-03-20T19:08:03.226Z,4.43
2023-03-20T19:10:53.214Z,5.20
2023-03-20T19:13:44.830Z,6.20
2023-03-20T19:16:37.895Z,5.35
2023-03-20T19:19:29.633Z,7.55
2023-03-20T19:22:29.372Z,7.40
2023-03-20T19:25:19.071Z,4.60
2023-03-20T19:28:11.536Z,3.72
2023-03-20T19:31:06.378Z,3.80
2023-03-20T19:33:57.203Z,3.08
2023-03-20T19:36:48.994Z,3.97
2023-03-20T19:39:37.567Z,3.63
2023-03-20T19:45:37.865Z,4.95
2023-03-20T19:51:36.224Z,4.40
2023-03-20T19:54:28.437Z,4.60
2023-03-20T19:57:17.623Z,4.80
2023-03-20T20:03:19.590Z,4.50
2023-03-20T20:06:09.853Z,4.72
2023-03-20T20:08:59.161Z,4.85
2023-03-20T20:11:49.967Z,5.43
2023-03-20T20:14:39.077Z,5.53
2023-03-20T20:17:27.698Z,6.00
2023-03-20T20:20:20.630Z,5.75
2023-03-20T20:23:15.704Z,6.28
2023-03-20T20:26:05.749Z,5.60
2023-03-20T20:28:55.820Z,6.20
2023-03-20T20:31:45.232Z,6.00
2023-03-20T20:40:54.002Z,6.15
2023-03-20T20:44:14.213Z,4.97
2023-03-20T20:46:53.388Z,6.60
2023-03-20T20:49:42.880Z,6.22
2023-03-20T20:52:31.797Z,5.20
2023-03-20T20:55:24.223Z,4.30
2023-03-20T20:58:14.064Z,4.30
2023-03-20T21:01:03.177Z,3.45
2023-03-20T21:03:54.698Z,3.33
2023-03-20T21:07:07.392Z,3.50
2023-03-20T21:09:54.608Z,3.70
2023-03-20T21:12:58.148Z,4.07
2023-03-20T21:15:48.174Z,3.47
2023-03-20T21:18:37.325Z,3.58
2023-03-20T21:21:28.488Z,4.72
2023-03-20T21:24:31.590Z,7.85
2023-03-20T21:27:23.117Z,11.77
2023-03-20T21:30:12.548Z,6.53
2023-03-20T21:33:01.319Z,5.65
2023-03-20T21:35:51.779Z,4.38
2023-03-20T21:41:51.445Z,7.03
2023-03-20T21:48:39.405Z,6.68
2023-03-20T21:51:49.531Z,6.78
2023-03-20T21:58:00.192Z,5.72
2023-03-20T22:10:46.101Z,5.32
2023-03-20T22:13:59.461Z,5.30
2023-03-20T22:17:17.616Z,4.72
2023-03-20T22:20:19.609Z,4.07
2023-03-20T22:29:44.052Z,5.43
2023-03-20T22:36:10.906Z,5.95
2023-03-20T22:39:14.149Z,5.93
2023-03-20T22:42:26.003Z,6.90
2023-03-20T22:45:01.407Z,7.05
2023-03-20T22:47:51.537Z,6.55
2023-03-20T22:50:41.055Z,6.85
2023-03-20T22:53:30.988Z,5.25
2023-03-20T22:56:20.420Z,5.63
2023-03-20T22:59:10.398Z,4.70
2023-03-20T23:01:59.358Z,4.50
2023-03-20T23:04:48.298Z,5.00
2023-03-20T23:07:37.642Z,5.90
2023-03-20T23:10:26.897Z,5.40
2023-03-20T23:13:17.035Z,4.65
2023-03-20T23:16:08.901Z,4.38
2023-03-20T23:18:58.169Z,4.78
2023-03-20T23:21:46.776Z,4.28
2023-03-20T23:24:35.384Z,4.40
2023-03-20T23:27:23.969Z,3.70
2023-03-20T23:30:14.659Z,3.33
2023-03-20T23:33:05.710Z,5.28
2023-03-20T23:36:01.285Z,4.60
2023-03-20T23:38:53.863Z,4.82
2023-03-20T23:42:12.040Z,5.40
2023-03-20T23:44:58.697Z,5.40
2023-03-20T23:47:49.580Z,4.60
2023-03-20T23:50:52.178Z,4.40
2023-03-20T23:53:42.160Z,3.22
2023-03-20T23:56:31.625Z,3.60
2023-03-20T23:59:22.421Z,3.63
